createdAt,value
2022-10-11T00:00:35.548Z,58.27
2022-10-11T00:02:38.015Z,58.23
2022-10-11T00:04:40.023Z,57.87
2022-10-11T00:06:43.833Z,57.74
2022-10-11T00:08:46.182Z,57.51
2022-10-11T00:11:03.380Z,57.61
2022-10-11T00:13:06.595Z,57.54
2022-10-11T00:15:12.458Z,57.71
2022-10-11T00:17:14.849Z,57.33
2022-10-11T00:19:17.745Z,57.44
2022-10-11T00:21:21.153Z,57.45
2022-10-11T00:23:23.264Z,57.18
2022-10-11T00:25:25.658Z,57.26
2022-10-11T00:27:28.315Z,57.52
2022-10-11T00:29:30.202Z,57.33
2022-10-11T00:31:35.620Z,57.34
2022-10-11T00:33:38.487Z,57.51
2022-10-11T00:35:41.958Z,57.23
2022-10-11T00:37:44.232Z,57.40
2022-10-11T00:39:46.487Z,57.73
2022-10-11T00:41:49.560Z,57.70
2022-10-11T00:44:12.142Z,57.89
2022-10-11T00:46:14.297Z,57.10
2022-10-11T00:48:23.419Z,57.41
2022-10-11T00:50:28.455Z,57.67
2022-10-11T00:52:35.309Z,57.60
2022-10-11T00:54:41.093Z,57.64
2022-10-11T00:56:46.077Z,57.56
2022-10-11T00:58:48.642Z,58.42
2022-10-11T01:00:51.297Z,58.58
2022-10-11T01:02:54.191Z,59.05
2022-10-11T01:05:17.935Z,58.79
2022-10-11T01:07:20.524Z,59.18
2022-10-11T01:09:23.176Z,59.00
2022-10-11T01:11:29.552Z,59.20
2022-10-11T01:13:50.269Z,59.99
2022-10-11T01:16:12.933Z,60.48
2022-10-11T01:18:26.510Z,60.03
2022-10-11T01:20:32.131Z,59.74
2022-10-11T01:22:58.834Z,60.71
2022-10-11T01:25:16.156Z,60.23
2022-10-11T01:27:29.964Z,59.33
2022-10-11T01:30:15.327Z,60.54
2022-10-11T01:32:24.924Z,59.95
2022-10-11T01:34:32.389Z,59.74
2022-10-11T01:36:49.791Z,60.20
2022-10-11T01:38:58.731Z,60.02
2022-10-11T01:41:07.560Z,59.97
2022-10-11T01:43:10.616Z,59.61
2022-10-11T01:45:17.913Z,60.16
2022-10-11T01:47:21.853Z,59.53
2022-10-11T01:49:24.041Z,59.61
2022-10-11T01:51:32.423Z,60.20
2022-10-11T01:53:56.384Z,60.81
2022-10-11T01:56:21.578Z,60.37
2022-10-11T01:58:42.903Z,60.38
2022-10-11T02:00:56.732Z,59.75
2022-10-11T02:02:59.070Z,59.62
2022-10-11T02:05:09.430Z,59.95
2022-10-11T02:07:15.422Z,60.38
2022-10-11T02:09:31.711Z,59.64
2022-10-11T02:11:35.132Z,59.57
2022-10-11T02:13:46.513Z,59.87
2022-10-11T02:15:51.724Z,59.61
2022-10-11T02:17:59.809Z,59.20
2022-10-11T02:20:09.153Z,59.26
2022-10-11T02:22:19.608Z,59.66
2022-10-11T02:24:32.458Z,59.94
2022-10-11T02:26:36.179Z,60.27
2022-10-11T02:28:41.876Z,60.69
2022-10-11T02:30:47.825Z,60.50
2022-10-11T02:32:52.976Z,60.51
2022-10-11T02:34:57.693Z,60.20
2022-10-11T02:37:04.823Z,59.90
2022-10-11T02:39:15.324Z,60.55
2022-10-11T02:41:29.924Z,60.61
2022-10-11T02:43:41.792Z,60.95
2022-10-11T02:45:49.327Z,60.45
2022-10-11T02:47:51.563Z,60.24
2022-10-11T02:49:53.814Z,60.07
2022-10-11T02:51:57.208Z,59.94
2022-10-11T02:53:59.560Z,59.34
2022-10-11T02:56:01.617Z,59.71
2022-10-11T02:58:03.959Z,59.90
2022-10-11T03:00:14.331Z,59.78
2022-10-11T03:02:16.616Z,59.53
2022-10-11T03:04:18.769Z,59.56
2022-10-11T03:06:21.092Z,59.25
2022-10-11T03:08:23.187Z,59.22
2022-10-11T03:10:26.073Z,59.31
2022-10-11T03:12:28.026Z,59.10
2022-10-11T03:14:30.267Z,59.05
2022-10-11T03:16:32.165Z,58.97
2022-10-11T03:18:34.246Z,58.91
2022-10-11T03:20:36.239Z,59.04
2022-10-11T03:22:38.406Z,58.97
2022-10-11T03:24:40.511Z,58.94
2022-10-11T03:26:42.556Z,59.94
2022-10-11T03:28:44.834Z,59.95
2022-10-11T03:30:51.037Z,60.09
2022-10-11T03:32:53.059Z,60.22
2022-10-11T03:34:55.093Z,59.95
2022-10-11T03:36:57.179Z,59.98
2022-10-11T03:39:00.399Z,59.93
2022-10-11T03:41:02.529Z,59.79
2022-10-11T03:43:04.489Z,59.58
2022-10-11T03:45:09.184Z,60.36
2022-10-11T03:47:11.123Z,60.24
2022-10-11T03:49:13.122Z,59.95
2022-10-11T03:51:15.822Z,60.53
2022-10-11T03:53:17.964Z,60.68
2022-10-11T03:55:20.289Z,60.57
2022-10-11T03:57:23.513Z,60.59
2022-10-11T03:59:26.983Z,61.03
2022-10-11T04:01:29.066Z,60.95
2022-10-11T04:03:31.150Z,61.29
2022-10-11T04:05:33.301Z,61.07
2022-10-11T04:07:35.475Z,61.10
2022-10-11T04:09:37.433Z,61.32
2022-10-11T04:11:39.840Z,61.15
2022-10-11T04:13:41.941Z,61.38
2022-10-11T04:15:44.064Z,60.61
2022-10-11T04:17:46.003Z,60.73
2022-10-11T04:19:48.494Z,60.98
2022-10-11T04:21:50.797Z,60.91
2022-10-11T04:23:52.860Z,60.89
2022-10-11T04:25:55.086Z,61.21
2022-10-11T04:27:57.349Z,61.55
2022-10-11T04:29:59.853Z,61.56
2022-10-11T04:32:02.001Z,61.74
2022-10-11T04:34:04.343Z,61.69
2022-10-11T04:36:07.131Z,61.78
2022-10-11T04:38:10.212Z,61.39
2022-10-11T04:40:12.683Z,61.85
2022-10-11T04:42:14.661Z,61.89
2022-10-11T04:44:16.629Z,62.21
2022-10-11T04:46:18.920Z,62.04
2022-10-11T04:48:21.054Z,61.74
2022-10-11T04:50:23.549Z,61.86
2022-10-11T04:52:26.071Z,61.97
2022-10-11T04:54:28.312Z,61.71
2022-10-11T04:56:30.813Z,61.87
2022-10-11T04:58:35.301Z,62.43
2022-10-11T05:00:42.047Z,63.52
2022-10-11T05:02:44.234Z,62.96
2022-10-11T05:04:46.387Z,62.53
2022-10-11T05:06:48.449Z,62.61
2022-10-11T05:08:51.049Z,62.43
2022-10-11T05:11:00.191Z,62.90
2022-10-11T05:13:02.237Z,62.53
2022-10-11T05:15:04.554Z,62.62
2022-10-11T05:17:06.460Z,62.71
2022-10-11T05:19:08.608Z,62.62
2022-10-11T05:25:04.383Z,62.52
2022-10-11T05:27:56.837Z,63.09
2022-10-11T05:29:58.843Z,62.61
2022-10-11T05:32:00.833Z,62.80
2022-10-11T05:34:06.149Z,62.90
2022-10-11T05:36:09.676Z,62.60
2022-10-11T05:38:11.903Z,62.52
2022-10-11T05:40:13.849Z,62.54
2022-10-11T05:42:15.959Z,62.50
2022-10-11T05:44:17.960Z,62.76
2022-10-11T05:46:20.042Z,62.67
2022-10-11T05:48:22.308Z,62.59
2022-10-11T05:50:24.654Z,62.70
2022-10-11T05:52:26.755Z,62.80
2022-10-11T05:54:52.966Z,63.11
2022-10-11T05:56:55.172Z,63.13
2022-10-11T05:59:02.019Z,62.69
2022-10-11T06:01:04.434Z,62.85
2022-10-11T06:03:08.034Z,62.47
2022-10-11T06:05:10.183Z,63.00
2022-10-11T06:07:11.983Z,63.21
2022-10-11T06:09:15.149Z,62.90
2022-10-11T06:11:22.685Z,63.68
2022-10-11T06:13:24.680Z,63.41
2022-10-11T06:15:26.738Z,63.45
2022-10-11T06:17:29.292Z,63.11
2022-10-11T06:19:31.653Z,62.91
2022-10-11T06:21:33.592Z,63.04
2022-10-11T06:23:35.821Z,63.10
2022-10-11T06:25:37.749Z,63.25
2022-10-11T06:27:39.806Z,63.61
2022-10-11T06:29:41.545Z,63.23
2022-10-11T06:31:43.555Z,63.74
2022-10-11T06:33:45.460Z,63.16
2022-10-11T06:35:47.412Z,64.05
2022-10-11T06:37:49.259Z,63.69
2022-10-11T06:39:51.322Z,63.30
2022-10-11T06:41:53.245Z,63.19
2022-10-11T06:43:55.892Z,63.21
2022-10-11T06:46:00.073Z,63.77
2022-10-11T06:48:02.245Z,63.53
2022-10-11T06:50:05.724Z,63.16
2022-10-11T06:52:07.637Z,63.34
2022-10-11T06:54:09.750Z,63.11
2022-10-11T06:56:12.964Z,62.98
2022-10-11T06:58:15.009Z,63.33
2022-10-11T07:00:19.939Z,63.41
2022-10-11T07:02:22.156Z,63.00
2022-10-11T07:04:24.138Z,63.78
2022-10-11T07:06:28.658Z,63.59
2022-10-11T07:08:31.185Z,62.97
2022-10-11T07:10:33.344Z,63.17
2022-10-11T07:12:35.578Z,63.44
2022-10-11T07:14:37.636Z,63.42
2022-10-11T07:16:39.920Z,63.22
2022-10-11T07:18:42.035Z,63.09
2022-10-11T07:20:43.879Z,63.12
2022-10-11T07:22:45.889Z,63.29
2022-10-11T07:24:49.414Z,63.26
2022-10-11T07:26:51.861Z,63.58
2022-10-11T07:28:54.136Z,63.65
2022-10-11T07:30:57.219Z,63.53
2022-10-11T07:32:59.163Z,63.34
2022-10-11T07:35:01.586Z,63.42
2022-10-11T07:37:03.577Z,63.07
2022-10-11T07:39:07.166Z,63.08
2022-10-11T07:41:10.291Z,63.09
2022-10-11T07:43:13.525Z,63.34
2022-10-11T07:45:15.814Z,63.06
2022-10-11T07:47:18.027Z,63.14
2022-10-11T07:49:20.052Z,63.46
2022-10-11T07:51:23.604Z,63.03
2022-10-11T07:53:25.567Z,63.29
2022-10-11T07:55:30.168Z,62.97
2022-10-11T07:57:32.434Z,63.60
2022-10-11T07:59:34.760Z,62.90
2022-10-11T08:01:37.041Z,62.79
2022-10-11T08:03:39.141Z,62.77
2022-10-11T08:05:41.649Z,62.83
2022-10-11T08:07:43.821Z,63.11
2022-10-11T08:09:46.304Z,62.95
2022-10-11T08:11:48.380Z,63.17
2022-10-11T08:13:50.650Z,62.76
2022-10-11T08:15:52.907Z,62.86
2022-10-11T08:17:55.459Z,63.34
2022-10-11T08:19:58.269Z,63.12
2022-10-11T08:22:00.707Z,62.94
2022-10-11T08:24:04.649Z,62.60
2022-10-11T08:26:07.871Z,62.34
2022-10-11T08:28:15.983Z,62.53
2022-10-11T08:30:18.300Z,62.70
2022-10-11T08:32:20.653Z,62.80
2022-10-11T08:34:23.151Z,62.42
2022-10-11T08:36:25.623Z,62.87
2022-10-11T08:38:27.695Z,62.58
2022-10-11T08:40:34.996Z,62.53
2022-10-11T08:42:48.219Z,62.30
2022-10-11T08:45:12.600Z,62.26
2022-10-11T08:47:23.820Z,61.80
2022-10-11T08:49:30.528Z,61.58
2022-10-11T08:51:40.014Z,61.80
2022-10-11T08:53:56.532Z,61.64
2022-10-11T08:55:59.099Z,61.94
2022-10-11T08:58:01.760Z,61.64
2022-10-11T09:00:18.720Z,61.33
2022-10-11T09:03:06.537Z,60.70
2022-10-11T09:05:05.082Z,60.82
2022-10-11T09:07:34.334Z,59.88
2022-10-11T09:09:50.130Z,60.24
2022-10-11T09:11:55.095Z,60.51
2022-10-11T09:14:20.824Z,60.03
2022-10-11T09:16:46.000Z,60.22
2022-10-11T09:19:12.327Z,59.65
2022-10-11T09:21:29.180Z,60.38
2022-10-11T09:23:51.884Z,59.50
2022-10-11T09:26:01.276Z,59.23
2022-10-11T09:28:36.986Z,59.49
2022-10-11T09:30:49.483Z,59.84
2022-10-11T09:33:33.034Z,59.40
2022-10-11T09:35:43.425Z,59.49
2022-10-11T09:37:54.316Z,59.49
2022-10-11T09:40:17.381Z,58.26
2022-10-11T09:42:19.489Z,58.87
2022-10-11T09:44:37.096Z,56.70
2022-10-11T09:46:42.626Z,56.03
2022-10-11T09:48:44.904Z,56.79
2022-10-11T09:50:48.218Z,57.31
2022-10-11T09:52:52.725Z,57.35
2022-10-11T09:54:58.167Z,56.81
2022-10-11T09:57:00.209Z,56.64
2022-10-11T09:59:27.369Z,56.43
2022-10-11T10:01:31.179Z,56.99
2022-10-11T10:03:42.465Z,56.73
2022-10-11T10:05:44.559Z,56.90
2022-10-11T10:08:11.969Z,56.70
2022-10-11T10:10:43.728Z,56.86
2022-10-11T10:12:56.037Z,56.78
2022-10-11T10:15:08.156Z,57.12
2022-10-11T10:17:18.245Z,57.12
2022-10-11T10:19:21.811Z,57.81
2022-10-11T10:21:33.443Z,57.56
2022-10-11T10:23:37.571Z,57.36
2022-10-11T10:25:43.513Z,57.47
2022-10-11T10:28:00.315Z,56.26
2022-10-11T10:30:08.148Z,56.62
2022-10-11T10:32:23.727Z,56.76
2022-10-11T10:34:33.346Z,56.74
2022-10-11T10:36:40.032Z,57.17
2022-10-11T10:39:32.944Z,56.57
2022-10-11T10:41:36.161Z,56.42
2022-10-11T10:43:40.249Z,56.51
2022-10-11T10:46:36.880Z,56.61
2022-10-11T10:51:28.183Z,55.74
2022-10-11T10:53:39.801Z,56.13
2022-10-11T10:55:48.341Z,55.86
2022-10-11T10:58:07.323Z,55.82
2022-10-11T11:00:23.758Z,56.05
2022-10-11T11:02:49.676Z,55.83
2022-10-11T11:05:21.242Z,56.01
2022-10-11T11:07:23.585Z,55.88
2022-10-11T11:09:41.415Z,55.40
2022-10-11T11:11:49.605Z,54.80
2022-10-11T11:14:19.742Z,54.90
2022-10-11T11:16:42.859Z,53.64
2022-10-11T11:18:56.244Z,54.91
2022-10-11T11:21:31.832Z,55.11
2022-10-11T11:23:40.075Z,54.19
2022-10-11T11:26:02.675Z,54.57
2022-10-11T11:28:10.600Z,53.93
2022-10-11T11:30:20.707Z,53.85
2022-10-11T11:32:43.417Z,53.97
2022-10-11T11:34:58.687Z,54.33
2022-10-11T11:37:05.576Z,55.31
2022-10-11T11:39:17.785Z,55.42
2022-10-11T11:41:26.139Z,55.31
2022-10-11T11:43:53.511Z,55.66
2022-10-11T11:45:59.587Z,55.30
2022-10-11T11:48:07.086Z,55.17
2022-10-11T11:50:28.598Z,55.57
2022-10-11T11:52:41.382Z,55.89
2022-10-11T11:55:09.678Z,55.96
2022-10-11T11:57:29.998Z,54.67
2022-10-11T12:00:05.641Z,54.66
2022-10-11T12:02:25.435Z,55.68
2022-10-11T12:04:37.260Z,55.38
2022-10-11T12:06:52.431Z,55.65
2022-10-11T12:09:17.161Z,55.72
2022-10-11T12:11:39.926Z,55.10
2022-10-11T12:13:44.421Z,55.40
2022-10-11T12:16:00.345Z,53.87
2022-10-11T12:18:13.556Z,54.58
2022-10-11T12:20:26.066Z,54.12
2022-10-11T12:22:28.138Z,54.62
2022-10-11T12:24:57.048Z,53.71
2022-10-11T12:26:59.820Z,54.64
2022-10-11T12:29:06.392Z,54.53
2022-10-11T12:31:27.219Z,54.77
2022-10-11T12:33:33.253Z,54.85
2022-10-11T12:35:36.975Z,54.57
2022-10-11T12:37:38.880Z,54.15
2022-10-11T12:39:57.115Z,53.31
2022-10-11T12:42:19.856Z,53.27
2022-10-11T12:44:26.519Z,53.82
2022-10-11T12:46:28.542Z,53.37
2022-10-11T12:48:45.312Z,52.56
2022-10-11T12:51:10.058Z,53.09
2022-10-11T12:53:17.947Z,53.31
2022-10-11T12:55:35.011Z,53.67
2022-10-11T12:57:52.139Z,53.77
2022-10-11T12:59:54.473Z,53.73
2022-10-11T13:02:00.143Z,54.42
2022-10-11T13:04:08.310Z,54.35
2022-10-11T13:06:25.160Z,53.89
2022-10-11T13:08:34.800Z,53.85
2022-10-11T13:10:44.776Z,54.42
2022-10-11T13:13:20.105Z,53.54
2022-10-11T13:15:27.210Z,53.68
2022-10-11T13:17:38.163Z,52.79
2022-10-11T13:21:54.508Z,52.90
2022-10-11T13:24:03.504Z,52.61
2022-10-11T13:26:05.546Z,53.24
2022-10-11T13:28:09.338Z,53.10
2022-10-11T13:30:38.914Z,52.18
2022-10-11T13:32:43.213Z,52.98
2022-10-11T13:34:47.982Z,52.73
2022-10-11T13:36:56.142Z,51.85
2022-10-11T13:39:00.281Z,52.83
2022-10-11T13:41:06.120Z,52.01
2022-10-11T13:43:08.747Z,52.43
2022-10-11T13:45:14.361Z,52.36
2022-10-11T13:47:21.064Z,52.63
2022-10-11T13:49:37.793Z,52.62
2022-10-11T13:51:39.795Z,52.38
2022-10-11T13:54:01.113Z,52.04
2022-10-11T13:56:06.257Z,52.54
2022-10-11T13:58:28.369Z,52.53
2022-10-11T14:00:40.264Z,52.50
2022-10-11T14:03:15.405Z,51.71
2022-10-11T14:05:38.907Z,51.73
2022-10-11T14:07:41.041Z,52.28
2022-10-11T14:09:47.311Z,51.93
2022-10-11T14:11:50.364Z,51.90
2022-10-11T14:13:52.273Z,51.89
2022-10-11T14:16:32.702Z,51.65
2022-10-11T14:18:34.747Z,52.10
2022-10-11T14:20:39.918Z,52.58
2022-10-11T14:22:42.085Z,52.14
2022-10-11T14:24:48.080Z,51.98
2022-10-11T14:26:53.139Z,52.31
2022-10-11T14:29:02.218Z,52.40
2022-10-11T14:31:05.036Z,52.65
2022-10-11T14:33:07.377Z,52.78
2022-10-11T14:35:22.024Z,53.13
2022-10-11T14:37:24.676Z,52.90
2022-10-11T14:39:29.729Z,52.76
2022-10-11T14:41:35.356Z,53.14
2022-10-11T14:43:37.620Z,53.14
2022-10-11T14:45:39.573Z,53.15
2022-10-11T14:47:43.078Z,53.01
2022-10-11T14:49:45.552Z,52.96
2022-10-11T14:51:50.065Z,53.31
2022-10-11T14:53:52.033Z,53.24
2022-10-11T14:55:55.104Z,53.50
2022-10-11T14:57:57.589Z,53.87
2022-10-11T14:59:59.500Z,53.80
2022-10-11T15:02:02.307Z,53.86
2022-10-11T15:04:04.838Z,54.21
2022-10-11T15:06:11.024Z,53.78
2022-10-11T15:08:15.105Z,53.97
2022-10-11T15:10:29.207Z,54.39
2022-10-11T15:12:32.861Z,54.39
2022-10-11T15:14:35.302Z,54.58
2022-10-11T15:16:39.354Z,54.62
2022-10-11T15:18:41.709Z,54.64
2022-10-11T15:20:46.303Z,54.85
2022-10-11T15:22:48.790Z,54.80
2022-10-11T15:24:51.904Z,54.83
2022-10-11T15:26:54.010Z,54.92
2022-10-11T15:28:57.379Z,55.25
2022-10-11T15:31:00.640Z,54.92
2022-10-11T15:33:06.418Z,55.20
2022-10-11T15:35:09.125Z,55.43
2022-10-11T15:37:11.159Z,55.31
2022-10-11T15:39:34.353Z,55.86
2022-10-11T15:41:36.618Z,55.31
2022-10-11T15:43:39.218Z,55.58
2022-10-11T15:45:44.106Z,55.57
2022-10-11T15:47:47.071Z,55.39
2022-10-11T15:49:49.164Z,55.75
2022-10-11T15:51:51.401Z,55.77
2022-10-11T15:53:53.607Z,56.26
2022-10-11T15:56:02.550Z,55.80
2022-10-11T15:58:05.307Z,55.60
2022-10-11T16:00:07.976Z,56.12
2022-10-11T16:02:15.294Z,55.80
2022-10-11T16:04:17.605Z,55.94
2022-10-11T16:06:20.226Z,56.12
2022-10-11T16:08:22.915Z,56.04
2022-10-11T16:10:28.429Z,55.84
2022-10-11T16:12:31.114Z,55.86
2022-10-11T16:14:33.262Z,55.96
2022-10-11T16:16:35.599Z,56.16
2022-10-11T16:18:37.962Z,56.12
2022-10-11T16:20:41.829Z,55.92
2022-10-11T16:22:45.696Z,55.94
2022-10-11T16:24:50.107Z,56.05
2022-10-11T16:26:52.157Z,55.82
2022-10-11T16:28:54.308Z,55.88
2022-10-11T16:30:56.946Z,56.01
2022-10-11T16:32:59.067Z,55.69
2022-10-11T16:35:01.063Z,56.14
2022-10-11T16:37:03.072Z,56.02
2022-10-11T16:39:09.245Z,56.62
2022-10-11T16:41:11.292Z,56.20
2022-10-11T16:43:13.213Z,56.57
2022-10-11T16:45:16.821Z,56.46
2022-10-11T16:47:19.416Z,56.20
2022-10-11T16:49:24.763Z,56.35
2022-10-11T16:51:26.718Z,56.35
2022-10-11T16:53:28.730Z,56.48
2022-10-11T16:55:30.829Z,56.63
2022-10-11T16:57:32.836Z,56.57
2022-10-11T16:59:38.335Z,56.40
2022-10-11T17:01:40.721Z,57.07
2022-10-11T17:03:42.774Z,56.72
2022-10-11T17:05:44.895Z,56.41
2022-10-11T17:07:46.977Z,56.51
2022-10-11T17:09:49.716Z,56.35
2022-10-11T17:11:52.311Z,56.61
2022-10-11T17:13:54.400Z,56.51
2022-10-11T17:15:56.753Z,56.47
2022-10-11T17:17:58.929Z,56.52
2022-10-11T17:20:02.418Z,56.38
2022-10-11T17:22:04.572Z,56.33
2022-10-11T17:24:07.258Z,56.53
2022-10-11T17:26:14.954Z,56.36
2022-10-11T17:28:17.089Z,56.82
2022-10-11T17:30:19.123Z,57.18
2022-10-11T17:32:21.064Z,57.35
2022-10-11T17:34:22.873Z,57.30
2022-10-11T17:36:28.008Z,57.09
2022-10-11T17:38:30.028Z,57.50
2022-10-11T17:40:32.061Z,57.24
2022-10-11T17:42:33.910Z,57.47
2022-10-11T17:44:36.270Z,57.08
2022-10-11T17:46:39.057Z,57.31
2022-10-11T17:48:41.491Z,57.12
2022-10-11T17:50:45.884Z,57.62
2022-10-11T17:52:51.748Z,57.09
2022-10-11T17:54:53.906Z,57.08
2022-10-11T17:56:56.152Z,57.13
2022-10-11T17:59:27.787Z,57.79
2022-10-11T18:01:29.897Z,57.27
2022-10-11T18:03:32.227Z,57.07
2022-10-11T18:05:34.417Z,57.18
2022-10-11T18:07:36.644Z,57.03
2022-10-11T18:09:38.566Z,57.17
2022-10-11T18:11:40.882Z,57.20
2022-10-11T18:13:46.515Z,57.34
2022-10-11T18:15:53.346Z,57.19
2022-10-11T18:17:57.751Z,56.99
2022-10-11T18:20:00.100Z,56.88
2022-10-11T18:22:06.802Z,56.95
2022-10-11T18:24:14.996Z,57.45
2022-10-11T18:26:20.091Z,57.09
2022-10-11T18:28:22.246Z,57.21
2022-10-11T18:30:24.102Z,57.29
2022-10-11T18:32:26.200Z,57.10
2022-10-11T18:34:28.391Z,57.09
2022-10-11T18:36:31.324Z,57.18
2022-10-11T18:38:34.449Z,57.26
2022-10-11T18:40:42.213Z,57.22
2022-10-11T18:43:25.374Z,57.27
2022-10-11T18:45:27.118Z,57.40
2022-10-11T18:47:28.964Z,57.26
2022-10-11T18:49:30.815Z,57.40
2022-10-11T18:51:36.240Z,57.16
2022-10-11T18:53:38.604Z,57.45
2022-10-11T18:55:40.709Z,57.56
2022-10-11T18:57:42.743Z,57.68
2022-10-11T18:59:44.988Z,57.49
2022-10-11T19:01:48.297Z,57.52
2022-10-11T19:03:52.845Z,57.55
2022-10-11T19:05:55.035Z,57.69
2022-10-11T19:07:57.278Z,57.56
2022-10-11T19:10:00.514Z,57.73
2022-10-11T19:12:02.566Z,57.71
2022-10-11T19:14:11.172Z,58.18
2022-10-11T19:16:16.824Z,58.22
2022-10-11T19:18:20.573Z,57.90
2022-10-11T19:20:22.515Z,57.99
2022-10-11T19:22:26.594Z,57.98
2022-10-11T19:24:30.168Z,57.91
2022-10-11T19:26:34.880Z,58.41
2022-10-11T19:32:40.505Z,58.47
2022-10-11T19:34:42.616Z,58.49
2022-10-11T19:36:50.114Z,58.50
2022-10-11T19:38:56.948Z,58.43
2022-10-11T19:41:01.250Z,58.50
2022-10-11T19:43:03.370Z,58.49
2022-10-11T19:45:06.076Z,58.47
2022-10-11T19:47:08.634Z,58.58
2022-10-11T19:49:12.117Z,59.02
2022-10-11T19:51:16.601Z,58.86
2022-10-11T19:53:18.768Z,58.81
2022-10-11T19:55:21.100Z,58.88
2022-10-11T19:57:23.055Z,58.92
2022-10-11T19:59:25.317Z,59.00
2022-10-11T20:01:30.485Z,59.23
2022-10-11T20:03:33.253Z,58.65
2022-10-11T20:05:38.163Z,58.92
2022-10-11T20:07:40.138Z,59.02
2022-10-11T20:09:42.243Z,58.63
2022-10-11T20:11:44.350Z,58.87
2022-10-11T20:13:47.073Z,59.21
2022-10-11T20:15:49.338Z,59.11
2022-10-11T20:17:51.901Z,58.86
2022-10-11T20:19:54.749Z,59.01
2022-10-11T20:21:57.144Z,59.17
2022-10-11T20:24:02.123Z,59.13
2022-10-11T20:26:07.608Z,58.79
2022-10-11T20:28:09.774Z,58.97
2022-10-11T20:30:12.484Z,58.82
2022-10-11T20:32:14.622Z,58.95
2022-10-11T20:34:17.024Z,58.83
2022-10-11T20:36:20.671Z,59.18
2022-10-11T20:38:22.678Z,58.93
2022-10-11T20:40:24.649Z,59.03
2022-10-11T20:42:29.705Z,58.33
2022-10-11T20:44:32.001Z,58.24
2022-10-11T20:46:38.431Z,58.44
2022-10-11T20:48:41.310Z,58.26
2022-10-11T20:50:46.355Z,58.13
2022-10-11T20:52:48.513Z,57.89
2022-10-11T20:54:50.838Z,58.05
2022-10-11T20:56:53.111Z,58.02
2022-10-11T20:58:57.660Z,58.17
2022-10-11T21:00:59.717Z,58.05
2022-10-11T21:03:03.113Z,58.28
2022-10-11T21:05:06.776Z,58.17
2022-10-11T21:07:09.172Z,58.46
2022-10-11T21:09:15.453Z,58.01
2022-10-11T21:11:18.877Z,58.34
2022-10-11T21:13:21.362Z,58.19
2022-10-11T21:15:23.972Z,58.07
2022-10-11T21:17:25.925Z,57.99
2022-10-11T21:19:28.398Z,58.00
2022-10-11T21:21:30.716Z,58.33
2022-10-11T21:23:33.035Z,58.23
2022-10-11T21:25:36.314Z,58.40
2022-10-11T21:27:38.666Z,58.34
2022-10-11T21:29:40.719Z,58.23
2022-10-11T21:31:42.849Z,58.51
2022-10-11T21:33:45.479Z,58.59
2022-10-11T21:35:47.950Z,58.33
2022-10-11T21:37:50.324Z,58.44
2022-10-11T21:39:52.396Z,58.48
2022-10-11T21:41:54.455Z,58.56
2022-10-11T21:43:57.141Z,58.66
2022-10-11T21:45:59.175Z,59.25
2022-10-11T21:48:01.317Z,59.58
2022-10-11T21:50:03.764Z,60.02
2022-10-11T21:52:06.346Z,60.40
2022-10-11T21:54:08.979Z,60.04
2022-10-11T21:56:11.328Z,60.44
2022-10-11T21:58:16.286Z,60.26
2022-10-11T22:00:18.726Z,59.92
2022-10-11T22:02:20.780Z,60.22
2022-10-11T22:04:23.398Z,60.14
2022-10-11T22:06:27.894Z,59.94
2022-10-11T22:08:30.530Z,59.60
2022-10-11T22:10:34.929Z,59.62
2022-10-11T22:12:37.840Z,59.75
2022-10-11T22:14:40.095Z,59.93
2022-10-11T22:16:42.116Z,59.70
2022-10-11T22:18:44.417Z,59.59
2022-10-11T22:20:46.497Z,59.72
2022-10-11T22:22:48.852Z,59.60
2022-10-11T22:24:50.886Z,59.54
2022-10-11T22:26:52.987Z,59.32
2022-10-11T22:28:55.116Z,59.67
2022-10-11T22:30:57.329Z,59.54
2022-10-11T22:32:59.523Z,59.56
2022-10-11T22:35:01.733Z,59.65
2022-10-11T22:37:03.732Z,59.68
2022-10-11T22:39:08.313Z,59.42
2022-10-11T22:41:10.978Z,59.40
2022-10-11T22:43:13.107Z,59.78
2022-10-11T22:45:15.528Z,59.93
2022-10-11T22:47:17.675Z,59.78
2022-10-11T22:49:19.552Z,59.39
2022-10-11T22:51:21.594Z,59.43
2022-10-11T22:53:23.941Z,59.62
2022-10-11T22:55:29.108Z,59.57
2022-10-11T22:57:31.120Z,59.41
2022-10-11T22:59:33.237Z,59.35
2022-10-11T23:01:35.520Z,59.40
2022-10-11T23:03:38.564Z,59.29
2022-10-11T23:05:40.741Z,59.32
2022-10-11T23:07:42.729Z,59.69
2022-10-11T23:09:44.905Z,59.39
2022-10-11T23:11:46.992Z,59.46
2022-10-11T23:13:49.397Z,59.39
2022-10-11T23:15:51.421Z,59.79
2022-10-11T23:17:53.467Z,59.58
2022-10-11T23:19:55.638Z,59.53
2022-10-11T23:21:57.749Z,59.23
2022-10-11T23:23:59.713Z,59.24
2022-10-11T23:26:07.184Z,59.08
2022-10-11T23:28:09.547Z,59.53
2022-10-11T23:30:12.639Z,59.44
2022-10-11T23:32:14.673Z,59.92
2022-10-11T23:34:16.709Z,59.53
2022-10-11T23:36:25.197Z,59.33
2022-10-11T23:38:32.654Z,59.13
2022-10-11T23:40:35.085Z,59.74
2022-10-11T23:42:37.734Z,59.94
2022-10-11T23:44:40.195Z,59.90
2022-10-11T23:46:42.390Z,59.96
2022-10-11T23:48:44.363Z,60.36
2022-10-11T23:50:46.522Z,60.36
2022-10-11T23:52:48.979Z,60.40
2022-10-11T23:54:51.078Z,60.33
2022-10-11T23:56:53.122Z,60.34
2022-10-11T23:58:55.195Z,60.21
